Time;durP1;ratioP1;P1;durP2;ratioP2;P2;SDS_P1;SDS_P2;PMS_P1;PMS_P2;Temp;Humidity;BMP_temperature;BMP_pressure;BME280_temperature;BME280_humidity;BME280_pressure;Samples;Min_cycle;Max_cycle;Signal;HPM_P1;HPM_P2
2023/03/08 00:02:32;;;;;;;1.13;0.73;;;;;;;;;;6212102;23;20249;-90
2023/03/08 00:05:10;;;;;;;0.73;0.73;;;;;;;;;;6225080;22;20243;-91
2023/03/08 00:07:56;;;;;;;0.37;0.13;;;;;;;;;;6275804;22;20198;-91
2023/03/08 00:10:40;;;;;;;1.87;0.97;;;;;;;;;;6274992;22;20593;-89
2023/03/08 00:13:18;;;;;;;3.30;0.87;;;;;;;;;;6273659;22;20619;-89
2023/03/08 00:15:58;;;;;;;;;;;;;;;;;;;;;
2023/03/08 00:18:41;;;;;;;5.07;1.43;;;;;;;;;;6276868;22;20628;-90
2023/03/08 00:21:14;;;;;;;0.93;0.93;;;;;;;;;;6274092;22;20217;-90
2023/03/08 00:24:03;;;;;;;1.87;1.83;;;;;;;;;;6281525;22;20154;-90
2023/03/08 00:26:52;;;;;;;3.40;3.10;;;;;;;;;;6300715;22;20189;-90
2023/03/08 00:29:49;;;;;;;1.17;1.13;;;;;;;;;;6300820;22;20217;-89
2023/03/08 00:32:50;;;;;;;0.50;0.43;;;;;;;;;;6286354;22;20232;-91
2023/03/08 00:35:27;;;;;;;0.60;0.60;;;;;;;;;;6279074;22;20162;-90
2023/03/08 00:38:06;;;;;;;0.10;0.10;;;;;;;;;;6283675;22;20177;-91
2023/03/08 00:40:41;;;;;;;0.73;0.73;;;;;;;;;;6279176;22;20170;-91
2023/03/08 00:43:16;;;;;;;0.80;0.77;;;;;;;;;;6274391;22;20161;-91
2023/03/08 00:45:46;;;;;;;2.87;2.70;;;;;;;;;;6276898;22;20176;-91
2023/03/08 00:48:21;;;;;;;1.53;0.70;;;;;;;;;;6276650;22;20166;-91
2023/03/08 00:50:54;;;;;;;0.30;0.30;;;;;;;;;;6278373;22;20161;-88
2023/03/08 00:53:22;;;;;;;1.40;1.13;;;;;;;;;;6281181;22;20513;-90
2023/03/08 00:55:53;;;;;;;0.27;0.27;;;;;;;;;;6279603;22;20165;-90
2023/03/08 00:58:38;;;;;;;0.10;0.10;;;;;;;;;;6286834;22;20201;-90
2023/03/08 01:01:16;;;;;;;;;;;;;;;;;;;;;
2023/03/08 01:03:51;;;;;;;0.10;0.10;;;;;;;;;;6290921;22;20162;-89
2023/03/08 01:06:24;;;;;;;8.00;2.43;;;;;;;;;;6290977;22;20188;-90
2023/03/08 01:09:03;;;;;;;2.73;2.50;;;;;;;;;;6290594;22;20189;-91
2023/03/08 01:11:42;;;;;;;;;;;;;;;;;;;;;
2023/03/08 01:14:14;;;;;;;8.97;2.23;;;;;;;;;;6278977;22;20166;-90
2023/03/08 01:19:34;;;;;;;1.37;1.37;;;;;;;;;;6274806;22;20201;-89
2023/03/08 01:22:12;;;;;;;0.57;0.57;;;;;;;;;;6276408;22;20165;-90
2023/03/08 01:24:44;;;;;;;0.77;0.40;;;;;;;;;;6277758;22;20166;-89
2023/03/08 01:27:18;;;;;;;5.70;3.67;;;;;;;;;;6274492;22;20165;-89
2023/03/08 01:29:49;;;;;;;0.37;0.37;;;;;;;;;;6275669;22;20238;-89
2023/03/08 01:32:18;;;;;;;3.93;1.00;;;;;;;;;;6275036;22;20173;-90
2023/03/08 01:35:02;;;;;;;0.20;0.20;;;;;;;;;;6274649;22;20170;-90
2023/03/08 01:37:53;;;;;;;2.80;1.37;;;;;;;;;;6277065;22;20178;-88
2023/03/08 01:40:25;;;;;;;3.83;0.87;;;;;;;;;;6275373;22;20617;-91
2023/03/08 01:43:26;;;;;;;0.63;0.63;;;;;;;;;;6272024;22;20170;-91
2023/03/08 01:46:11;;;;;;;1.33;1.23;;;;;;;;;;6274767;22;20172;-88
2023/03/08 01:48:51;;;;;;;0.90;0.90;;;;;;;;;;6273647;22;20173;-88
2023/03/08 01:51:35;;;;;;;2.00;1.40;;;;;;;;;;6275765;22;20168;-88
2023/03/08 01:54:11;;;;;;;2.00;1.57;;;;;;;;;;6273982;22;20185;-91
2023/03/08 01:56:43;;;;;;;2.63;2.43;;;;;;;;;;6273910;22;20174;-89
2023/03/08 01:59:16;;;;;;;1.03;0.93;;;;;;;;;;6276858;22;20694;-89
2023/03/08 02:01:57;;;;;;;0.60;0.60;;;;;;;;;;6274908;22;20170;-90
2023/03/08 02:04:33;;;;;;;0.10;0.10;;;;;;;;;;6285170;22;20404;-92
2023/03/08 02:07:12;;;;;;;0.40;0.40;;;;;;;;;;6294121;22;20196;-92
2023/03/08 02:10:13;;;;;;;2.17;0.87;;;;;;;;;;6292405;22;20192;-90
2023/03/08 02:12:58;;;;;;;0.60;0.60;;;;;;;;;;6125689;23;20205;-92
2023/03/08 02:16:00;;;;;;;;;;;;;;;;;;;;;
2023/03/08 02:21:50;;;;;;;0.73;0.57;;;;;;;;;;6108558;23;20184;-92
2023/03/08 02:24:34;;;;;;;0.30;0.30;;;;;;;;;;6105252;23;20436;-92
2023/03/08 02:27:12;;;;;;;4.43;0.80;;;;;;;;;;6104541;23;20196;-91
2023/03/08 02:32:37;;;;;;;2.77;0.57;;;;;;;;;;6105090;23;20204;-91
2023/03/08 02:35:16;;;;;;;0.30;0.30;;;;;;;;;;6105924;23;20234;-90
2023/03/08 02:37:53;;;;;;;0.10;0.10;;;;;;;;;;6104564;23;20265;-91
2023/03/08 02:43:22;;;;;;;3.20;0.93;;;;;;;;;;6223435;22;20222;-90
2023/03/08 02:46:00;;;;;;;0.10;0.10;;;;;;;;;;6265417;23;20162;-89
2023/03/08 02:48:40;;;;;;;5.10;2.50;;;;;;;;;;6262371;23;20192;-91
2023/03/08 02:51:14;;;;;;;1.37;1.27;;;;;;;;;;6262637;22;20198;-90
2023/03/08 02:53:58;;;;;;;5.13;1.17;;;;;;;;;;6259614;22;20241;-91
2023/03/08 02:56:35;;;;;;;0.80;0.80;;;;;;;;;;6255398;22;20170;-89
2023/03/08 03:05:20;;;;;;;9.13;1.87;;;;;;;;;;6250670;22;20181;-91
2023/03/08 03:08:01;;;;;;;;;;;;;;;;;;;;;
2023/03/08 03:10:32;;;;;;;1.23;1.23;;;;;;;;;;6242640;23;20189;-89
2023/03/08 03:13:03;;;;;;;3.37;1.50;;;;;;;;;;6243977;22;20235;-91
2023/03/08 03:15:39;;;;;;;1.47;1.47;;;;;;;;;;6244024;22;20178;-90
2023/03/08 03:21:18;;;;;;;1.70;0.90;;;;;;;;;;6244659;23;20285;-88
2023/03/08 03:23:50;;;;;;;2.23;1.77;;;;;;;;;;6245837;22;20624;-88
2023/03/08 03:26:38;;;;;;;0.93;0.93;;;;;;;;;;6245102;22;20190;-88
2023/03/08 03:29:06;;;;;;;0.20;0.20;;;;;;;;;;6232614;22;20233;-89
2023/03/08 03:31:44;;;;;;;2.90;1.20;;;;;;;;;;6245323;22;20174;-89
2023/03/08 03:34:16;;;;;;;1.30;1.30;;;;;;;;;;6244732;22;20178;-89
2023/03/08 03:36:45;;;;;;;0.53;0.53;;;;;;;;;;6245051;23;20245;-90
2023/03/08 03:39:14;;;;;;;2.93;0.93;;;;;;;;;;6245061;22;20198;-90
2023/03/08 03:41:44;;;;;;;6.77;1.33;;;;;;;;;;6245131;23;20277;-89
2023/03/08 03:44:16;;;;;;;0.30;0.30;;;;;;;;;;6247518;23;20513;-89
2023/03/08 03:46:45;;;;;;;0.40;0.40;;;;;;;;;;6251673;23;20167;-90
2023/03/08 03:49:21;;;;;;;0.17;0.17;;;;;;;;;;6267356;23;20206;-89
2023/03/08 03:52:20;;;;;;;0.47;0.47;;;;;;;;;;6268234;22;20182;-91
2023/03/08 03:54:52;;;;;;;0.23;0.23;;;;;;;;;;6148470;23;20302;-90
2023/03/08 03:57:34;;;;;;;3.10;1.37;;;;;;;;;;6208942;23;20197;-88
2023/03/08 04:00:08;;;;;;;0.87;0.70;;;;;;;;;;6245147;23;20213;-89
2023/03/08 04:02:36;;;;;;;0.10;0.10;;;;;;;;;;6244814;23;20215;-88
2023/03/08 04:05:32;;;;;;;1.30;1.07;;;;;;;;;;6258736;23;20170;-89
2023/03/08 04:08:03;;;;;;;0.40;0.40;;;;;;;;;;6257457;23;20155;-88
2023/03/08 04:10:33;;;;;;;0.27;0.27;;;;;;;;;;6265403;23;20211;-87
2023/03/08 04:13:07;;;;;;;0.10;0.10;;;;;;;;;;6251773;23;20174;-89
2023/03/08 04:15:38;;;;;;;11.83;2.13;;;;;;;;;;6247884;23;20170;-88
2023/03/08 04:18:11;;;;;;;0.50;0.50;;;;;;;;;;6245387;23;20631;-90
2023/03/08 04:20:47;;;;;;;0.80;0.80;;;;;;;;;;6244948;23;20198;-89
2023/03/08 04:23:15;;;;;;;0.53;0.53;;;;;;;;;;6244914;23;20170;-90
2023/03/08 04:26:04;;;;;;;0.33;0.33;;;;;;;;;;6245151;23;20178;-90
2023/03/08 04:31:46;;;;;;;0.10;0.10;;;;;;;;;;6237931;23;20245;-89
2023/03/08 04:34:27;;;;;;;;;;;;;;;;;;;;;
2023/03/08 04:36:58;;;;;;;0.30;0.30;;;;;;;;;;6245124;23;20173;-90
2023/03/08 04:42:15;;;;;;;5.93;1.00;;;;;;;;;;6239877;23;20207;-90
2023/03/08 04:44:47;;;;;;;1.83;1.73;;;;;;;;;;6246371;23;20166;-90
2023/03/08 04:47:24;;;;;;;1.20;1.20;;;;;;;;;;6245457;23;20174;-91
2023/03/08 04:50:09;;;;;;;6.20;1.80;;;;;;;;;;6245306;23;20184;-90
2023/03/08 04:53:04;;;;;;;4.63;0.43;;;;;;;;;;6245229;23;20170;-89
2023/03/08 04:55:40;;;;;;;0.60;0.53;;;;;;;;;;6246958;23;20167;-90
2023/03/08 04:58:34;;;;;;;3.43;2.03;;;;;;;;;;6245132;23;20694;-91
2023/03/08 05:01:10;;;;;;;2.03;1.63;;;;;;;;;;6245182;23;20213;-89
2023/03/08 05:03:50;;;;;;;3.03;2.30;;;;;;;;;;6246833;23;20163;-92
2023/03/08 05:06:36;;;;;;;2.37;2.27;;;;;;;;;;6245587;23;20167;-89
2023/03/08 05:09:20;;;;;;;1.10;1.10;;;;;;;;;;6242177;23;20174;-90
2023/03/08 05:12:12;;;;;;;;;;;;;;;;;;;;;
2023/03/08 05:14:53;;;;;;;1.13;1.07;;;;;;;;;;6245026;23;20167;-90
2023/03/08 05:17:41;;;;;;;0.50;0.50;;;;;;;;;;6242208;23;20179;-91
2023/03/08 05:20:18;;;;;;;0.60;0.60;;;;;;;;;;6244956;23;20194;-89
2023/03/08 05:22:55;;;;;;;1.67;1.17;;;;;;;;;;6246510;23;20166;-90
2023/03/08 05:25:36;;;;;;;;;;;;;;;;;;;;;
2023/03/08 05:28:35;;;;;;;1.50;1.40;;;;;;;;;;6243826;23;20519;-90
2023/03/08 05:31:22;;;;;;;6.37;1.83;;;;;;;;;;6187466;23;20617;-90
2023/03/08 05:33:56;;;;;;;1.43;1.43;;;;;;;;;;6216653;23;20174;-91
2023/03/08 05:36:27;;;;;;;7.73;2.50;;;;;;;;;;6250889;23;20658;-91
2023/03/08 05:39:01;;;;;;;7.33;1.03;;;;;;;;;;6242891;23;20189;-90
2023/03/08 05:41:34;;;;;;;1.10;1.10;;;;;;;;;;6244467;23;20680;-90
2023/03/08 05:44:04;;;;;;;1.30;1.30;;;;;;;;;;6244000;23;20284;-89
2023/03/08 05:46:45;;;;;;;4.87;2.03;;;;;;;;;;6243510;23;20191;-90
2023/03/08 05:49:19;;;;;;;1.90;1.77;;;;;;;;;;6244575;23;20619;-90
2023/03/08 05:51:55;;;;;;;1.23;1.23;;;;;;;;;;6243477;23;20581;-91
2023/03/08 05:54:51;;;;;;;1.13;1.03;;;;;;;;;;6242964;23;20234;-90
2023/03/08 05:57:26;;;;;;;1.83;1.67;;;;;;;;;;6246992;23;20254;-88
2023/03/08 06:00:03;;;;;;;3.27;2.27;;;;;;;;;;6244812;23;20198;-88
2023/03/08 06:05:41;;;;;;;2.30;2.20;;;;;;;;;;6239681;23;20182;-89
2023/03/08 06:08:22;;;;;;;2.83;2.63;;;;;;;;;;6217255;23;20190;-90
2023/03/08 06:10:58;;;;;;;3.37;1.53;;;;;;;;;;6243608;23;20182;-91
2023/03/08 06:16:27;;;;;;;1.63;1.53;;;;;;;;;;6155689;23;20162;-91
2023/03/08 06:21:43;;;;;;;1.02;1.02;;;;;;;;;;6240430;23;20226;-90
2023/03/08 06:24:19;;;;;;;0.98;0.98;;;;;;;;;;6244267;23;20762;-91
2023/03/08 06:26:59;;;;;;;0.93;0.93;;;;;;;;;;6243625;23;20191;-90
2023/03/08 06:29:36;;;;;;;1.73;1.63;;;;;;;;;;6249581;23;20714;-89
2023/03/08 06:32:20;;;;;;;1.70;1.60;;;;;;;;;;6244796;23;20178;-90
2023/03/08 06:34:54;;;;;;;6.78;1.33;;;;;;;;;;6244733;23;20169;-90
2023/03/08 06:37:32;;;;;;;0.85;0.85;;;;;;;;;;6242956;23;20178;-91
2023/03/08 06:40:35;;;;;;;1.30;1.30;;;;;;;;;;6243993;23;20202;-89
2023/03/08 06:43:20;;;;;;;2.53;0.82;;;;;;;;;;6243535;23;20705;-91
2023/03/08 06:45:51;;;;;;;0.85;0.85;;;;;;;;;;6244635;23;20163;-91
2023/03/08 06:48:35;;;;;;;0.93;0.93;;;;;;;;;;6244039;23;20216;-88
2023/03/08 06:51:19;;;;;;;1.23;1.13;;;;;;;;;;6244648;23;20198;-90
2023/03/08 06:54:01;;;;;;;3.25;2.30;;;;;;;;;;6250480;23;20703;-89
2023/03/08 06:56:54;;;;;;;1.58;1.38;;;;;;;;;;6245676;23;20194;-88
2023/03/08 06:59:32;;;;;;;3.67;1.15;;;;;;;;;;6251536;23;20178;-90
2023/03/08 07:02:12;;;;;;;0.77;0.77;;;;;;;;;;6269294;22;20631;-91
2023/03/08 07:04:56;;;;;;;;;;;;;;;;;;;;;
2023/03/08 07:07:32;;;;;;;0.80;0.80;;;;;;;;;;6265009;22;20163;-89
2023/03/08 07:10:09;;;;;;;0.30;0.30;;;;;;;;;;6245777;23;20190;-87
2023/03/08 07:13:07;;;;;;;;;;;;;;;;;;;;;
2023/03/08 07:15:35;;;;;;;0.70;0.70;;;;;;;;;;6245348;23;20172;-91
2023/03/08 07:18:09;;;;;;;0.73;0.73;;;;;;;;;;6246761;23;20234;-92
2023/03/08 07:20:51;;;;;;;0.55;0.55;;;;;;;;;;6244256;23;20197;-92
2023/03/08 07:27:02;;;;;;;7.03;0.95;;;;;;;;;;6212154;23;20176;-88
2023/03/08 07:29:51;;;;;;;0.73;0.73;;;;;;;;;;6242127;23;20578;-89
2023/03/08 07:32:33;;;;;;;0.63;0.63;;;;;;;;;;6245490;23;20493;-90
2023/03/08 07:35:06;;;;;;;0.87;0.87;;;;;;;;;;6241720;23;20162;-90
2023/03/08 07:37:40;;;;;;;9.33;2.40;;;;;;;;;;6240330;23;20184;-90
2023/03/08 07:40:20;;;;;;;0.70;0.30;;;;;;;;;;6241527;23;20651;-90
2023/03/08 07:43:37;;;;;;;0.30;0.30;;;;;;;;;;6239792;23;20271;-90
2023/03/08 07:52:37;;;;;;;1.07;1.07;;;;;;;;;;6244280;23;20194;-91
2023/03/08 08:01:09;;;;;;;;;;;;;;;;;;;;;
2023/03/08 08:03:48;;;;;;;0.47;0.47;;;;;;;;;;6237067;23;20194;-90
2023/03/08 08:09:32;;;;;;;;;;;;;;;;;;;;;
2023/03/08 08:12:08;;;;;;;0.33;0.33;;;;;;;;;;6242773;23;20197;-90
2023/03/08 08:14:41;;;;;;;0.63;0.63;;;;;;;;;;6244363;23;20603;-90
2023/03/08 08:17:11;;;;;;;3.70;1.53;;;;;;;;;;6242769;23;20696;-90
2023/03/08 08:19:56;;;;;;;0.60;0.60;;;;;;;;;;6243298;23;20189;-91
2023/03/08 08:22:42;;;;;;;0.40;0.17;;;;;;;;;;6243756;23;20198;-89
2023/03/08 08:25:31;;;;;;;0.43;0.43;;;;;;;;;;6243461;23;20931;-91
2023/03/08 08:28:02;;;;;;;1.27;1.17;;;;;;;;;;6241822;23;20747;-90
2023/03/08 08:33:41;;;;;;;0.47;0.47;;;;;;;;;;6221634;23;20701;-90
2023/03/08 08:36:15;;;;;;;0.53;0.40;;;;;;;;;;6242434;23;20197;-91
2023/03/08 08:38:46;;;;;;;1.30;0.60;;;;;;;;;;6242955;23;20280;-90
2023/03/08 08:41:33;;;;;;;0.70;0.70;;;;;;;;;;6243867;23;20266;-90
2023/03/08 08:46:49;;;;;;;1.90;1.02;;;;;;;;;;6198978;22;20209;-91
2023/03/08 08:58:18;;;;;;;1.83;1.70;;;;;;;;;;6235913;23;20589;-91
2023/03/08 09:00:50;;;;;;;2.80;1.95;;;;;;;;;;6243870;23;20208;-91
2023/03/08 09:03:24;;;;;;;0.75;0.75;;;;;;;;;;6242015;23;20540;-89
2023/03/08 09:06:04;;;;;;;1.05;1.05;;;;;;;;;;6243878;23;20193;-89
2023/03/08 09:08:41;;;;;;;0.13;0.13;;;;;;;;;;6243267;23;20459;-90
2023/03/08 09:11:18;;;;;;;3.60;0.70;;;;;;;;;;6245973;23;20570;-90
2023/03/08 09:14:11;;;;;;;1.07;1.07;;;;;;;;;;6242001;23;20222;-92
2023/03/08 09:16:45;;;;;;;0.20;0.20;;;;;;;;;;6243380;23;20224;-92
2023/03/08 09:19:19;;;;;;;2.10;1.63;;;;;;;;;;6239173;23;20190;-89
2023/03/08 09:21:50;;;;;;;2.67;1.10;;;;;;;;;;6241896;23;20241;-89
2023/03/08 09:24:17;;;;;;;0.97;0.97;;;;;;;;;;6243243;23;20536;-88
2023/03/08 09:26:45;;;;;;;3.70;3.37;;;;;;;;;;6242227;23;20265;-89
2023/03/08 09:29:27;;;;;;;0.20;0.20;;;;;;;;;;6241703;23;20190;-88
2023/03/08 09:31:55;;;;;;;0.30;0.30;;;;;;;;;;6245811;23;20575;-89
2023/03/08 09:34:25;;;;;;;0.43;0.43;;;;;;;;;;6250305;23;20202;-90
2023/03/08 09:37:02;;;;;;;0.70;0.70;;;;;;;;;;6249900;23;20728;-91
2023/03/08 09:39:32;;;;;;;0.77;0.40;;;;;;;;;;6250418;23;20260;-88
2023/03/08 09:42:09;;;;;;;1.07;1.07;;;;;;;;;;6250377;23;20234;-88
2023/03/08 09:44:59;;;;;;;0.83;0.40;;;;;;;;;;6242366;23;20285;-89
2023/03/08 09:47:38;;;;;;;0.93;0.87;;;;;;;;;;6241977;23;20220;-89
2023/03/08 09:50:21;;;;;;;0.57;0.57;;;;;;;;;;6243224;23;20195;-89
2023/03/08 09:53:15;;;;;;;0.10;0.10;;;;;;;;;;6242133;23;20188;-91
2023/03/08 09:58:44;;;;;;;2.95;0.60;;;;;;;;;;6244725;23;20203;-87
2023/03/08 10:01:32;;;;;;;0.70;0.70;;;;;;;;;;6254306;23;20218;-88
2023/03/08 10:04:32;;;;;;;1.73;1.63;;;;;;;;;;6257022;23;20202;-87
2023/03/08 10:07:25;;;;;;;1.13;1.13;;;;;;;;;;6167671;23;20285;-88
2023/03/08 10:10:14;;;;;;;2.65;0.93;;;;;;;;;;6222311;23;20227;-87
2023/03/08 10:12:55;;;;;;;3.72;1.65;;;;;;;;;;6257414;23;20247;-89
2023/03/08 10:15:25;;;;;;;0.75;0.75;;;;;;;;;;6240796;23;20196;-89
2023/03/08 10:18:01;;;;;;;1.88;1.70;;;;;;;;;;6239745;23;20268;-87
2023/03/08 10:20:30;;;;;;;1.75;1.48;;;;;;;;;;6240983;23;20198;-86
2023/03/08 10:22:58;;;;;;;1.05;0.98;;;;;;;;;;6241293;23;20198;-87
2023/03/08 10:25:27;;;;;;;2.63;2.53;;;;;;;;;;6241182;23;20190;-88
2023/03/08 10:27:55;;;;;;;0.55;0.55;;;;;;;;;;6241087;23;20190;-88
2023/03/08 10:30:28;;;;;;;0.50;0.50;;;;;;;;;;6241525;23;20619;-88
2023/03/08 10:33:03;;;;;;;3.42;2.38;;;;;;;;;;6241862;23;20206;-90
2023/03/08 10:35:35;;;;;;;1.98;1.17;;;;;;;;;;6246962;22;20265;-90
2023/03/08 10:38:02;;;;;;;0.20;0.20;;;;;;;;;;6269139;22;20194;-90
2023/03/08 10:40:31;;;;;;;0.00;0.00;;;;;;;;;;6247390;23;20193;-90
2023/03/08 10:43:06;;;;;;;0.00;0.00;;;;;;;;;;6245155;23;20210;-89
2023/03/08 10:45:36;;;;;;;0.00;0.00;;;;;;;;;;6243027;23;20218;-89
2023/03/08 10:48:13;;;;;;;0.30;0.30;;;;;;;;;;6241806;23;20217;-90
2023/03/08 10:51:11;;;;;;;;;;;;;;;;;;;;;
2023/03/08 10:53:46;;;;;;;0.10;0.10;;;;;;;;;;6242053;23;20198;-90
2023/03/08 10:56:25;;;;;;;0.08;0.08;;;;;;;;;;6240279;23;20200;-90
2023/03/08 10:59:08;;;;;;;0.00;0.00;;;;;;;;;;6239774;23;20200;-89
2023/03/08 11:01:44;;;;;;;0.05;0.05;;;;;;;;;;6240066;23;20243;-90
2023/03/08 11:04:29;;;;;;;0.47;0.20;;;;;;;;;;6240617;23;20224;-88
2023/03/08 11:07:14;;;;;;;0.30;0.30;;;;;;;;;;6239877;23;20192;-90
2023/03/08 11:09:52;;;;;;;0.10;0.10;;;;;;;;;;6241403;23;20197;-89
2023/03/08 11:12:40;;;;;;;0.10;0.10;;;;;;;;;;6241231;23;20228;-91
2023/03/08 11:15:21;;;;;;;1.10;0.28;;;;;;;;;;6239963;23;20199;-89
2023/03/08 11:17:58;;;;;;;0.17;0.17;;;;;;;;;;6241412;23;20254;-90
2023/03/08 11:20:36;;;;;;;0.30;0.30;;;;;;;;;;6240151;23;20601;-89
2023/03/08 11:23:10;;;;;;;0.10;0.10;;;;;;;;;;6241540;23;20206;-89
2023/03/08 11:28:47;;;;;;;0.00;0.00;;;;;;;;;;6238618;23;20689;-89
2023/03/08 11:31:28;;;;;;;0.17;0.17;;;;;;;;;;6240161;23;20587;-91
2023/03/08 11:34:09;;;;;;;0.00;0.00;;;;;;;;;;6242622;23;20193;-90
2023/03/08 11:37:02;;;;;;;0.30;0.30;;;;;;;;;;6241900;23;20524;-90
2023/03/08 11:39:47;;;;;;;0.00;0.00;;;;;;;;;;6241328;23;20196;-88
2023/03/08 11:42:36;;;;;;;0.90;0.90;;;;;;;;;;6238573;23;20234;-90
2023/03/08 11:45:19;;;;;;;0.20;0.20;;;;;;;;;;6244495;23;20192;-90
2023/03/08 11:48:15;;;;;;;0.00;0.00;;;;;;;;;;6189234;23;20193;-89
2023/03/08 11:51:13;;;;;;;0.10;0.10;;;;;;;;;;6134928;23;20196;-91
2023/03/08 11:53:58;;;;;;;0.10;0.10;;;;;;;;;;6217020;23;20205;-90
2023/03/08 11:56:44;;;;;;;1.55;0.30;;;;;;;;;;6210911;23;20276;-91
2023/03/08 11:59:26;;;;;;;0.43;0.43;;;;;;;;;;6214857;23;20191;-88
2023/03/08 12:02:02;;;;;;;0.00;0.00;;;;;;;;;;6213581;23;20210;-91
2023/03/08 12:04:47;;;;;;;0.05;0.05;;;;;;;;;;6212610;23;20195;-90
2023/03/08 12:07:24;;;;;;;0.10;0.10;;;;;;;;;;6214090;23;20197;-90
2023/03/08 12:10:03;;;;;;;1.40;0.40;;;;;;;;;;6212987;23;20523;-90
2023/03/08 12:13:11;;;;;;;0.68;0.15;;;;;;;;;;6210006;23;20630;-90
2023/03/08 12:16:10;;;;;;;;;;;;;;;;;;;;;
2023/03/08 12:18:51;;;;;;;0.20;0.20;;;;;;;;;;6217548;23;20194;-85
2023/03/08 12:21:27;;;;;;;0.30;0.25;;;;;;;;;;6213280;23;20201;-89
2023/03/08 12:24:13;;;;;;;0.10;0.10;;;;;;;;;;6214809;23;20228;-88
2023/03/08 12:26:44;;;;;;;0.45;0.45;;;;;;;;;;6215766;23;20201;-86
2023/03/08 12:29:26;;;;;;;0.08;0.08;;;;;;;;;;6219710;23;20202;-91
2023/03/08 12:32:03;;;;;;;0.20;0.20;;;;;;;;;;6226648;23;20744;-89
2023/03/08 12:34:48;;;;;;;0.10;0.10;;;;;;;;;;6216732;23;20746;-88
2023/03/08 12:37:30;;;;;;;0.10;0.10;;;;;;;;;;6216997;23;20210;-88
2023/03/08 12:40:12;;;;;;;;;;;;;;;;;;;;;
2023/03/08 12:42:41;;;;;;;0.20;0.20;;;;;;;;;;6221194;23;20216;-89
2023/03/08 12:45:12;;;;;;;0.28;0.28;;;;;;;;;;6223807;23;20192;-88
2023/03/08 12:50:59;;;;;;;0.40;0.20;;;;;;;;;;6211503;23;20270;-89
2023/03/08 12:53:42;;;;;;;0.47;0.47;;;;;;;;;;6252134;23;20198;-89
2023/03/08 12:56:35;;;;;;;0.03;0.03;;;;;;;;;;6255858;23;20219;-89
2023/03/08 12:59:28;;;;;;;0.17;0.17;;;;;;;;;;6254223;23;20196;-90
2023/03/08 13:02:30;;;;;;;0.88;0.22;;;;;;;;;;6258792;23;20240;-91
2023/03/08 13:05:11;;;;;;;0.35;0.35;;;;;;;;;;6259248;23;20691;-89
2023/03/08 13:07:48;;;;;;;0.10;0.08;;;;;;;;;;6255859;23;20253;-88
2023/03/08 13:13:27;;;;;;;1.55;0.28;;;;;;;;;;6240757;23;20196;-90
2023/03/08 13:19:10;;;;;;;0.52;0.30;;;;;;;;;;6263166;23;20196;-89
2023/03/08 13:21:41;;;;;;;0.20;0.20;;;;;;;;;;6267381;23;20785;-90
2023/03/08 13:24:18;;;;;;;2.53;1.02;;;;;;;;;;6267775;23;20503;-87
2023/03/08 13:27:19;;;;;;;0.22;0.22;;;;;;;;;;6263489;23;20205;-89
2023/03/08 13:30:17;;;;;;;0.15;0.08;;;;;;;;;;6258595;23;20192;-86
2023/03/08 13:32:57;;;;;;;0.55;0.55;;;;;;;;;;6257931;23;20192;-88
2023/03/08 13:35:51;;;;;;;0.57;0.57;;;;;;;;;;6251409;23;20739;-89
2023/03/08 13:38:37;;;;;;;0.90;0.90;;;;;;;;;;6241812;23;20675;-89
2023/03/08 13:41:12;;;;;;;0.00;0.00;;;;;;;;;;6243940;23;20189;-89
2023/03/08 13:43:52;;;;;;;0.05;0.05;;;;;;;;;;6254020;23;20235;-88
2023/03/08 13:46:41;;;;;;;;;;;;;;;;;;;;;
2023/03/08 13:52:24;;;;;;;2.72;0.20;;;;;;;;;;6237071;23;20823;-90
2023/03/08 13:55:08;;;;;;;0.20;0.20;;;;;;;;;;6240973;23;20201;-88
2023/03/08 13:58:01;;;;;;;0.08;0.08;;;;;;;;;;6241803;23;20192;-90
2023/03/08 14:03:37;;;;;;;0.10;0.10;;;;;;;;;;6178266;23;20208;-91
2023/03/08 14:06:19;;;;;;;0.05;0.05;;;;;;;;;;6247583;23;20193;-90
2023/03/08 14:08:58;;;;;;;0.00;0.00;;;;;;;;;;6244606;23;20189;-91
2023/03/08 14:11:53;;;;;;;0.77;0.63;;;;;;;;;;6244187;23;20188;-88
2023/03/08 14:14:45;;;;;;;0.32;0.32;;;;;;;;;;6239807;23;20212;-91
2023/03/08 14:17:25;;;;;;;0.00;0.00;;;;;;;;;;6240941;23;20192;-89
2023/03/08 14:20:01;;;;;;;0.33;0.33;;;;;;;;;;6238919;23;20196;-88
2023/03/08 14:22:48;;;;;;;0.45;0.45;;;;;;;;;;6240501;23;20207;-89
2023/03/08 14:28:45;;;;;;;0.20;0.20;;;;;;;;;;6183087;23;20211;-88
2023/03/08 14:31:48;;;;;;;0.53;0.53;;;;;;;;;;6238857;23;20192;-91
2023/03/08 14:34:23;;;;;;;0.15;0.15;;;;;;;;;;6239485;23;20253;-89
2023/03/08 14:39:51;;;;;;;0.00;0.00;;;;;;;;;;6148280;23;20199;-88
2023/03/08 14:42:25;;;;;;;0.07;0.07;;;;;;;;;;6218639;22;20630;-89
2023/03/08 14:45:01;;;;;;;0.00;0.00;;;;;;;;;;6238528;22;20572;-90
2023/03/08 14:47:32;;;;;;;1.60;1.17;;;;;;;;;;6241184;23;20223;-91
2023/03/08 14:50:23;;;;;;;2.20;0.70;;;;;;;;;;6242283;22;20224;-89
2023/03/08 14:53:00;;;;;;;0.10;0.10;;;;;;;;;;6242980;23;20198;-88
2023/03/08 14:55:38;;;;;;;0.13;0.13;;;;;;;;;;6243034;22;20187;-90
2023/03/08 14:58:32;;;;;;;0.43;0.43;;;;;;;;;;6244324;23;20199;-88
2023/03/08 15:01:23;;;;;;;0.20;0.20;;;;;;;;;;6244276;22;20198;-89
2023/03/08 15:04:03;;;;;;;0.30;0.30;;;;;;;;;;6243973;23;20212;-90
2023/03/08 15:06:50;;;;;;;2.00;0.93;;;;;;;;;;6241233;22;20195;-89
2023/03/08 15:09:30;;;;;;;0.00;0.00;;;;;;;;;;6241846;23;20275;-91
2023/03/08 15:12:00;;;;;;;0.00;0.00;;;;;;;;;;6241477;22;20199;-90
2023/03/08 15:14:37;;;;;;;0.27;0.27;;;;;;;;;;6243266;22;20592;-90
2023/03/08 15:20:26;;;;;;;0.10;0.10;;;;;;;;;;6240893;23;20296;-88
2023/03/08 15:23:00;;;;;;;0.13;0.13;;;;;;;;;;6230186;23;20259;-88
2023/03/08 15:25:36;;;;;;;0.93;0.93;;;;;;;;;;6241968;22;20572;-89
2023/03/08 15:28:17;;;;;;;0.23;0.23;;;;;;;;;;6242529;22;20233;-89
2023/03/08 15:30:56;;;;;;;0.30;0.10;;;;;;;;;;6240891;22;20199;-89
2023/03/08 15:33:29;;;;;;;0.50;0.50;;;;;;;;;;6240989;22;20191;-89
2023/03/08 15:36:10;;;;;;;0.20;0.20;;;;;;;;;;6239533;22;20198;-90
2023/03/08 15:38:44;;;;;;;0.20;0.20;;;;;;;;;;6242910;22;20265;-90
2023/03/08 15:42:03;;;;;;;0.40;0.40;;;;;;;;;;6241762;22;20337;-88
2023/03/08 15:44:42;;;;;;;0.27;0.27;;;;;;;;;;6238762;22;20234;-89
2023/03/08 15:47:45;;;;;;;0.00;0.00;;;;;;;;;;6242286;23;20271;-91
2023/03/08 15:50:31;;;;;;;0.27;0.27;;;;;;;;;;6214625;23;20229;-90
2023/03/08 15:53:15;;;;;;;0.93;0.47;;;;;;;;;;6242449;23;20248;-90
2023/03/08 15:56:14;;;;;;;0.97;0.20;;;;;;;;;;6243339;23;20247;-89
2023/03/08 16:02:08;;;;;;;0.00;0.00;;;;;;;;;;6233834;23;20697;-88
2023/03/08 16:04:56;;;;;;;0.30;0.30;;;;;;;;;;6243541;23;20205;-90
2023/03/08 16:13:35;;;;;;;2.30;1.00;;;;;;;;;;6002917;23;20247;-89
2023/03/08 16:16:18;;;;;;;0.10;0.10;;;;;;;;;;6022928;23;20225;-91
2023/03/08 16:18:57;;;;;;;0.00;0.00;;;;;;;;;;6160379;23;20210;-91
2023/03/08 16:21:35;;;;;;;0.20;0.20;;;;;;;;;;6190169;23;20194;-92
2023/03/08 16:24:04;;;;;;;0.63;0.63;;;;;;;;;;6241779;23;20220;-89
2023/03/08 16:26:52;;;;;;;0.50;0.50;;;;;;;;;;6246404;23;20250;-90
2023/03/08 16:29:35;;;;;;;0.63;0.60;;;;;;;;;;6242511;23;20190;-88
2023/03/08 16:32:04;;;;;;;0.77;0.57;;;;;;;;;;6251602;23;20191;-89
2023/03/08 16:37:55;;;;;;;0.00;0.00;;;;;;;;;;6265154;23;20246;-87
2023/03/08 16:40:45;;;;;;;0.73;0.73;;;;;;;;;;6243712;23;20214;-89
2023/03/08 16:43:16;;;;;;;1.17;1.10;;;;;;;;;;6239283;23;20218;-88
2023/03/08 16:46:13;;;;;;;0.87;0.87;;;;;;;;;;6243406;23;20194;-90
2023/03/08 16:48:54;;;;;;;6.03;2.33;;;;;;;;;;6242494;23;20274;-91
2023/03/08 16:51:49;;;;;;;3.90;1.70;;;;;;;;;;6242325;23;20198;-91
2023/03/08 16:54:27;;;;;;;0.30;0.30;;;;;;;;;;6242689;23;20244;-90
2023/03/08 16:57:01;;;;;;;3.30;1.07;;;;;;;;;;6243777;23;20591;-91
2023/03/08 16:59:49;;;;;;;0.50;0.50;;;;;;;;;;6244870;23;20488;-91
2023/03/08 17:02:46;;;;;;;1.50;0.93;;;;;;;;;;6244868;23;20197;-90
2023/03/08 17:08:36;;;;;;;0.40;0.40;;;;;;;;;;6126782;23;20212;-89
2023/03/08 17:11:14;;;;;;;0.80;0.37;;;;;;;;;;6221389;23;20188;-91
2023/03/08 17:13:54;;;;;;;0.47;0.47;;;;;;;;;;6242404;23;20200;-91
2023/03/08 17:19:52;;;;;;;2.63;1.17;;;;;;;;;;6192302;23;20566;-91
2023/03/08 17:22:50;;;;;;;3.13;2.93;;;;;;;;;;6242257;23;20236;-89
2023/03/08 17:25:38;;;;;;;0.10;0.10;;;;;;;;;;6246450;23;20678;-90
2023/03/08 17:28:09;;;;;;;2.57;0.83;;;;;;;;;;6245194;23;20186;-90
2023/03/08 17:30:50;;;;;;;0.50;0.50;;;;;;;;;;6243077;23;20285;-91
2023/03/08 17:36:17;;;;;;;0.20;0.20;;;;;;;;;;6242275;23;20224;-90
2023/03/08 17:39:00;;;;;;;0.70;0.60;;;;;;;;;;6241875;23;20248;-88
2023/03/08 17:42:06;;;;;;;0.30;0.30;;;;;;;;;;6244679;23;20718;-89
2023/03/08 17:45:13;;;;;;;0.60;0.60;;;;;;;;;;6237852;23;20233;-90
2023/03/08 18:00:15;;;;;;;0.47;0.47;;;;;;;;;;6242412;23;20668;-90
2023/03/08 18:02:57;;;;;;;1.97;1.83;;;;;;;;;;6260111;23;20197;-90
2023/03/08 18:05:34;;;;;;;0.80;0.80;;;;;;;;;;6256626;23;20253;-89
2023/03/08 18:08:27;;;;;;;0.37;0.37;;;;;;;;;;6264798;23;20194;-89
2023/03/08 18:14:37;;;;;;;;;;;;;;;;;;;;;
2023/03/08 18:20:34;;;;;;;1.33;1.33;;;;;;;;;;6247428;23;20337;-91
2023/03/08 18:29:02;;;;;;;;;;;;;;;;;;;;;
2023/03/08 18:34:46;;;;;;;3.50;0.60;;;;;;;;;;6218676;23;20199;-90
2023/03/08 18:40:26;;;;;;;0.30;0.23;;;;;;;;;;6240789;23;20194;-89
2023/03/08 18:45:52;;;;;;;5.97;1.37;;;;;;;;;;6242222;23;20194;-88
2023/03/08 18:48:39;;;;;;;2.37;2.27;;;;;;;;;;6243387;23;20191;-88
2023/03/08 18:51:11;;;;;;;0.87;0.70;;;;;;;;;;6243278;23;20669;-91
2023/03/08 18:53:59;;;;;;;1.37;0.93;;;;;;;;;;6245014;23;20206;-91
2023/03/08 18:56:44;;;;;;;0.77;0.60;;;;;;;;;;6240980;23;20256;-89